Torrington, WY

12:24 AM MDT on September 20, 2014 (GMT -0600)
Torrington Municipal | Change Station
CLOSE
Current Station
Airport
Location: Torrington,
Elevation: 4206 ft
Nearby Weather Stations

Elev 4206 ft 42.06 °N, 104.15 °W | Updated 31 minutes ago

Clear
Clear
63 °F
Feels Like 63 °F
N
5
Wind Variable Wind from East

Today
High -- | Low -- °F
--% Chance of Precip.
Yesterday
High -- | Low -- °F
Precip. -- in
6:41 AM 6:57 PM
Waning Crescent, 14% visible
Pressure 29.86 in
Visibility 10.0 miles
Clouds Clear
Dew Point 49 °F
Humidity 60%
Rainfall 0.00 in
Snow Depth Not available.
UV 0 out of 12
Pollen 6.20 out of 12
Air Quality Not available.
Flu Activity Not available.
METAR KTOR 200553Z AUTO 08004KT 10SM CLR 17/09 A3000 RMK AO2 SLP110 T01720094 10289 20167 51015

More Conditions Fewer Conditions

Pressure 29.86 in
Visibility 10.0 miles
Clouds Clear
Dew Point 49 °F
Humidity 60%
Rainfall 0.00 in
Snow Depth Not available.
UV 0 out of 12
Pollen 6.20 out of 12
Air Quality Not available.
Flu Activity Not available.
METAR KTOR 200553Z AUTO 08004KT 10SM CLR 17/09 A3000 RMK AO2 SLP110 T01720094 10289 20167 51015

More Conditions Fewer Conditions

10-Day Weather Forecast

Almanac

Astronomy

Sep. 20, 2014 Rise Set
Actual Time 6:41 AM MDT 6:57 PM MDT
Civil Twilight 6:14 AM MDT 7:25 PM MDT
Nautical Twilight 5:41 AM MDT 7:57 PM MDT
Astronomical Twilight 5:07 AM MDT 8:31 PM MDT
Moon 3:20 AM MDT 5:04 PM MDT
Length of Visible Light 13h 11m
Length of Day
12h 15m
Tomorrow will be 2m 48s shorter.
Waning Crescent, 14% of the Moon is Illuminated
Today
Waning Crescent
Sep 24
New
Oct 1
First Quarter
Oct 8
Full
Oct 15
Last Quarter

Today's Extremes

State Highs State Lows

Community

WunderPhotos

Upload Photos

1,754,779 photos uploaded!

WunderBlogs® & News

Nearby

Snow Depth

Station Depth Elevation
South Brush Creek 0 in 8440 ft
Salt River Summit 0 in 7600 ft
Two Ocean Plateau 0 in 9240 ft
Togwotee Pass 0 in 7980 ft
Thumb Divide 0 in 7980 ft

Earthquake Activity

City Distance Mag. Time & Date
No recent earthquake activity has been reported nearby.
Minimum magnitude displayed is 2.5.

Coastal Water Temperatures

Place Temperature
No Stations Reporting

Nearby Weather Stations